createdAt,value
2023-04-18T00:01:35.209Z,55.66
2023-04-18T00:04:08.712Z,55.85
2023-04-18T00:06:42.288Z,55.87
2023-04-18T00:09:15.456Z,55.89
2023-04-18T00:11:48.810Z,56.04
2023-04-18T00:14:23.287Z,55.97
2023-04-18T00:16:55.998Z,56.02
2023-04-18T00:19:28.719Z,56.29
2023-04-18T00:22:01.819Z,56.40
2023-04-18T00:24:35.102Z,56.82
2023-04-18T00:27:08.172Z,56.69
2023-04-18T00:29:42.874Z,56.77
2023-04-18T00:32:16.174Z,56.99
2023-04-18T00:34:49.110Z,57.28
2023-04-18T00:37:23.855Z,57.32
2023-04-18T00:39:56.780Z,57.39
2023-04-18T00:42:29.799Z,57.51
2023-04-18T00:45:03.062Z,57.80
2023-04-18T00:47:37.333Z,57.94
2023-04-18T00:50:12.123Z,58.25
2023-04-18T00:52:47.237Z,58.27
2023-04-18T00:55:20.716Z,58.47
2023-04-18T00:57:53.828Z,58.56
2023-04-18T01:00:27.333Z,58.68
2023-04-18T01:03:01.588Z,58.84
2023-04-18T01:05:36.692Z,59.08
2023-04-18T01:08:09.665Z,59.17
2023-04-18T01:10:42.890Z,59.34
2023-04-18T01:13:19.034Z,59.53
2023-04-18T01:15:55.026Z,59.70
2023-04-18T01:18:28.158Z,59.94
2023-04-18T01:21:01.414Z,60.15
2023-04-18T01:23:34.860Z,60.27
2023-04-18T01:26:07.942Z,60.35
2023-04-18T01:28:41.002Z,60.70
2023-04-18T01:31:13.974Z,60.96
2023-04-18T01:33:47.036Z,61.18
2023-04-18T01:36:20.411Z,61.25
2023-04-18T01:38:53.221Z,61.45
2023-04-18T01:41:29.386Z,61.74
2023-04-18T01:44:02.659Z,61.95
2023-04-18T01:46:36.382Z,62.08
2023-04-18T01:49:10.342Z,62.31
2023-04-18T01:51:44.150Z,62.57
2023-04-18T01:54:17.068Z,62.75
2023-04-18T01:56:49.930Z,63.11
2023-04-18T01:59:22.951Z,63.53
2023-04-18T02:01:56.537Z,63.76
2023-04-18T02:04:29.658Z,64.01
2023-04-18T02:07:02.309Z,64.22
2023-04-18T02:09:35.411Z,64.37
2023-04-18T02:12:09.261Z,64.64
2023-04-18T02:14:42.400Z,64.81
2023-04-18T02:17:15.461Z,65.08
2023-04-18T02:19:48.682Z,65.39
2023-04-18T02:22:21.831Z,65.66
2023-04-18T02:24:54.633Z,66.00
2023-04-18T02:27:27.554Z,66.33
2023-04-18T02:30:02.042Z,66.55
2023-04-18T02:32:37.520Z,66.95
2023-04-18T02:35:13.669Z,67.37
2023-04-18T02:37:46.675Z,67.56
2023-04-18T02:40:20.343Z,67.98
2023-04-18T02:42:53.203Z,68.42
2023-04-18T02:45:26.203Z,68.60
2023-04-18T02:47:59.931Z,69.00
2023-04-18T02:50:33.454Z,69.23
2023-04-18T02:53:06.502Z,69.58
2023-04-18T02:55:41.187Z,70.00
2023-04-18T02:58:14.256Z,70.32
2023-04-18T03:00:57.752Z,70.49
2023-04-18T03:03:44.701Z,70.76
2023-04-18T03:06:19.377Z,70.86
2023-04-18T03:08:53.181Z,71.00
2023-04-18T03:11:26.143Z,71.09
2023-04-18T03:13:59.831Z,71.21
2023-04-18T03:16:34.517Z,71.33
2023-04-18T03:19:07.370Z,71.53
2023-04-18T03:21:40.582Z,71.76
2023-04-18T03:24:14.233Z,71.90
2023-04-18T03:26:48.670Z,72.03
2023-04-18T03:29:22.258Z,72.12
2023-04-18T03:31:55.606Z,72.24
2023-04-18T03:34:28.293Z,72.28
2023-04-18T03:37:01.811Z,72.22
2023-04-18T03:39:35.171Z,72.12
2023-04-18T03:42:08.448Z,71.89
2023-04-18T03:44:41.478Z,72.05
2023-04-18T03:47:16.247Z,71.75
2023-04-18T03:49:50.977Z,71.43
2023-04-18T03:52:24.680Z,71.08
2023-04-18T03:54:58.054Z,71.01
2023-04-18T03:57:32.854Z,70.58
2023-04-18T04:00:10.642Z,70.47
2023-04-18T04:02:50.682Z,70.35
2023-04-18T04:05:25.293Z,70.31
2023-04-18T04:07:59.364Z,70.00
2023-04-18T04:10:32.194Z,70.11
2023-04-18T04:13:05.421Z,69.98
2023-04-18T04:15:40.831Z,69.83
2023-04-18T04:18:15.418Z,70.07
2023-04-18T04:20:49.452Z,70.36
2023-04-18T04:23:27.503Z,70.84
2023-04-18T04:26:02.109Z,71.13
2023-04-18T04:28:40.380Z,71.36
2023-04-18T04:31:13.967Z,71.59
2023-04-18T04:33:47.217Z,71.71
2023-04-18T04:36:23.405Z,72.20
2023-04-18T04:38:57.230Z,72.04
2023-04-18T04:41:32.077Z,72.20
2023-04-18T04:44:05.843Z,72.26
2023-04-18T04:46:40.648Z,72.56
2023-04-18T04:49:15.754Z,72.52
2023-04-18T04:51:49.006Z,72.78
2023-04-18T04:54:22.399Z,73.23
2023-04-18T04:56:55.590Z,73.43
2023-04-18T04:59:28.803Z,73.86
2023-04-18T05:02:01.965Z,74.27
2023-04-18T05:04:35.439Z,74.66
2023-04-18T05:07:08.433Z,74.89
2023-04-18T05:09:41.278Z,75.22
2023-04-18T05:12:14.474Z,75.18
2023-04-18T05:14:49.138Z,75.33
2023-04-18T05:17:22.550Z,75.20
2023-04-18T05:19:55.471Z,75.35
2023-04-18T05:22:28.526Z,76.02
2023-04-18T05:25:01.738Z,76.42
2023-04-18T05:27:35.192Z,76.33
2023-04-18T05:30:09.479Z,76.45
2023-04-18T05:32:42.714Z,76.74
2023-04-18T05:35:15.584Z,76.36
2023-04-18T05:37:48.259Z,76.06
2023-04-18T05:40:21.443Z,75.90
2023-04-18T05:42:54.459Z,75.99
2023-04-18T05:45:27.482Z,75.95
2023-04-18T05:48:00.809Z,76.12
2023-04-18T05:50:34.016Z,76.18
2023-04-18T05:53:06.902Z,76.21
2023-04-18T05:55:41.386Z,76.39
2023-04-18T05:58:14.405Z,75.43
2023-04-18T06:00:48.582Z,75.19
2023-04-18T06:03:21.629Z,74.66
2023-04-18T06:05:54.903Z,74.26
2023-04-18T06:08:28.358Z,74.64
2023-04-18T06:11:01.352Z,75.10
2023-04-18T06:13:34.462Z,75.51
2023-04-18T06:16:09.394Z,74.69
2023-04-18T06:18:42.708Z,74.50
2023-04-18T06:21:16.445Z,74.09
2023-04-18T06:23:49.328Z,74.53
2023-04-18T06:26:22.434Z,74.00
2023-04-18T06:28:56.283Z,73.79
2023-04-18T06:31:29.364Z,73.56
2023-04-18T06:34:02.238Z,73.00
2023-04-18T06:36:35.481Z,72.59
2023-04-18T06:39:08.301Z,72.44
2023-04-18T06:41:41.351Z,72.57
2023-04-18T06:44:14.200Z,72.87
2023-04-18T06:46:47.311Z,73.51
2023-04-18T06:49:21.997Z,73.84
2023-04-18T06:51:54.771Z,73.48
2023-04-18T06:54:27.948Z,73.29
2023-04-18T06:57:03.052Z,73.21
2023-04-18T06:59:37.708Z,73.52
2023-04-18T07:02:11.151Z,74.13
2023-04-18T07:04:44.291Z,73.99
2023-04-18T07:07:17.526Z,73.59
2023-04-18T07:09:53.015Z,73.77
2023-04-18T07:12:27.475Z,73.44
2023-04-18T07:15:00.572Z,73.27
2023-04-18T07:17:34.395Z,73.05
2023-04-18T07:20:09.297Z,72.73
2023-04-18T07:22:43.074Z,73.06
2023-04-18T07:25:16.032Z,72.27
2023-04-18T07:27:49.073Z,72.48
2023-04-18T07:30:22.238Z,72.42
2023-04-18T07:32:55.558Z,71.79
2023-04-18T07:35:28.995Z,71.56
2023-04-18T07:38:02.086Z,70.94
2023-04-18T07:40:35.295Z,71.64
2023-04-18T07:43:08.450Z,71.19
2023-04-18T07:45:43.502Z,70.99
2023-04-18T07:48:16.934Z,70.57
2023-04-18T07:50:50.528Z,70.57
2023-04-18T07:53:23.534Z,70.72
2023-04-18T07:55:57.069Z,71.08
2023-04-18T07:58:30.399Z,71.37
2023-04-18T08:01:03.634Z,71.57
2023-04-18T08:03:37.443Z,71.18
2023-04-18T08:06:11.755Z,70.37
2023-04-18T08:08:44.868Z,69.54
2023-04-18T08:11:17.721Z,68.93
2023-04-18T08:13:50.627Z,68.81
2023-04-18T08:16:23.632Z,68.67
2023-04-18T08:18:56.741Z,68.70
2023-04-18T08:21:29.804Z,68.36
2023-04-18T08:24:02.713Z,68.46
2023-04-18T08:26:35.915Z,68.66
2023-04-18T08:29:08.788Z,67.25
2023-04-18T08:31:42.016Z,67.36
2023-04-18T08:34:15.038Z,67.66
2023-04-18T08:36:48.007Z,67.86
2023-04-18T08:39:21.006Z,67.45
2023-04-18T08:42:03.490Z,67.49
2023-04-18T08:44:38.744Z,67.94
2023-04-18T08:47:13.070Z,68.14
2023-04-18T08:49:45.804Z,68.23
2023-04-18T08:52:19.243Z,68.34
2023-04-18T08:54:52.803Z,68.84
2023-04-18T08:57:30.253Z,68.76
2023-04-18T09:00:05.027Z,67.93
2023-04-18T09:02:45.237Z,68.19
2023-04-18T09:05:21.888Z,67.65
2023-04-18T09:07:56.902Z,66.58
2023-04-18T09:10:35.332Z,66.63
2023-04-18T09:13:09.901Z,66.11
2023-04-18T09:15:44.604Z,65.61
2023-04-18T09:18:18.576Z,66.01
2023-04-18T09:20:52.321Z,67.55
2023-04-18T09:23:26.272Z,67.60
2023-04-18T09:25:59.795Z,67.28
2023-04-18T09:28:34.450Z,67.20
2023-04-18T09:31:15.181Z,66.51
2023-04-18T09:33:57.108Z,66.51
2023-04-18T09:36:31.669Z,67.22
2023-04-18T09:39:04.281Z,66.07
2023-04-18T09:41:37.354Z,64.59
2023-04-18T09:44:15.869Z,64.28
2023-04-18T09:46:49.766Z,65.00
2023-04-18T09:49:23.214Z,65.87
2023-04-18T09:51:57.763Z,65.27
2023-04-18T09:54:32.153Z,65.47
2023-04-18T09:57:06.628Z,65.26
2023-04-18T10:00:02.274Z,64.94
2023-04-18T10:02:47.949Z,64.70
2023-04-18T10:05:24.547Z,65.30
2023-04-18T10:07:57.669Z,65.25
2023-04-18T10:10:31.073Z,65.90
2023-04-18T10:13:05.277Z,65.79
2023-04-18T10:15:38.596Z,65.63
2023-04-18T10:18:17.591Z,65.82
2023-04-18T10:20:50.833Z,66.31
2023-04-18T10:23:39.321Z,66.26
2023-04-18T10:26:13.710Z,66.60
2023-04-18T10:28:59.023Z,65.35
2023-04-18T10:31:32.011Z,63.92
2023-04-18T10:34:08.296Z,63.39
2023-04-18T10:36:52.423Z,62.73
2023-04-18T10:39:26.355Z,61.62
2023-04-18T10:41:59.224Z,61.62
2023-04-18T10:44:32.474Z,61.63
2023-04-18T10:47:19.279Z,61.54
2023-04-18T10:49:57.378Z,61.65
2023-04-18T10:52:30.390Z,62.84
2023-04-18T10:55:28.375Z,63.04
2023-04-18T10:58:02.089Z,63.55
2023-04-18T11:00:35.581Z,63.07
2023-04-18T11:03:08.475Z,62.28
2023-04-18T11:05:41.704Z,62.29
2023-04-18T11:08:27.030Z,61.81
2023-04-18T11:11:03.073Z,61.01
2023-04-18T11:13:37.117Z,62.22
2023-04-18T11:16:10.086Z,62.92
2023-04-18T11:18:43.472Z,63.38
2023-04-18T11:21:16.661Z,63.17
2023-04-18T11:23:50.170Z,63.79
2023-04-18T11:26:26.192Z,63.59
2023-04-18T11:28:59.908Z,63.06
2023-04-18T11:31:33.391Z,62.66
2023-04-18T11:34:06.433Z,62.66
2023-04-18T11:36:39.815Z,62.39
2023-04-18T11:39:12.712Z,62.15
2023-04-18T11:41:48.003Z,62.19
2023-04-18T11:44:25.718Z,62.26
2023-04-18T11:46:58.982Z,62.06
2023-04-18T11:49:33.472Z,62.30
2023-04-18T11:52:13.746Z,62.96
2023-04-18T11:54:47.266Z,62.56
2023-04-18T11:57:32.273Z,62.12
2023-04-18T12:00:07.669Z,62.11
2023-04-18T12:02:47.966Z,61.60
2023-04-18T12:05:32.186Z,60.98
2023-04-18T12:08:14.149Z,60.09
2023-04-18T12:10:51.943Z,60.27
2023-04-18T12:13:33.544Z,59.58
2023-04-18T12:16:07.926Z,59.28
2023-04-18T12:18:42.285Z,59.91
2023-04-18T12:21:16.854Z,60.25
2023-04-18T12:23:50.007Z,59.79
2023-04-18T12:26:24.360Z,59.18
2023-04-18T12:28:56.511Z,59.09
2023-04-18T12:31:29.084Z,58.87
2023-04-18T12:34:02.447Z,59.03
2023-04-18T12:36:35.546Z,59.41
2023-04-18T12:39:09.439Z,59.48
2023-04-18T12:41:42.344Z,59.18
2023-04-18T12:44:15.491Z,59.35
2023-04-18T12:46:48.719Z,60.15
2023-04-18T12:49:21.855Z,59.76
2023-04-18T12:51:54.943Z,59.09
2023-04-18T12:54:27.929Z,58.98
2023-04-18T12:57:01.966Z,59.56
2023-04-18T12:59:35.148Z,59.39
2023-04-18T13:02:08.212Z,59.16
2023-04-18T13:04:41.816Z,59.09
2023-04-18T13:07:14.992Z,59.44
2023-04-18T13:09:48.219Z,58.85
2023-04-18T13:12:21.599Z,58.79
2023-04-18T13:14:55.126Z,58.45
2023-04-18T13:17:29.193Z,59.47
2023-04-18T13:20:02.523Z,59.35
2023-04-18T13:22:36.312Z,59.94
2023-04-18T13:25:12.349Z,59.89
2023-04-18T13:27:46.237Z,59.76
2023-04-18T13:30:19.536Z,60.30
2023-04-18T13:32:52.578Z,60.24
2023-04-18T13:35:25.655Z,59.84
2023-04-18T13:37:59.456Z,60.17
2023-04-18T13:40:33.760Z,60.10
2023-04-18T13:43:06.634Z,59.69
2023-04-18T13:45:39.716Z,60.38
2023-04-18T13:48:15.062Z,60.55
2023-04-18T13:50:47.530Z,60.69
2023-04-18T13:53:21.235Z,60.47
2023-04-18T13:55:54.370Z,60.23
2023-04-18T13:58:27.290Z,60.29
2023-04-18T14:01:00.313Z,60.29
2023-04-18T14:03:35.308Z,60.03
2023-04-18T14:06:08.464Z,60.03
2023-04-18T14:08:41.631Z,59.19
2023-04-18T14:11:14.662Z,58.69
2023-04-18T14:13:47.715Z,59.37
2023-04-18T14:16:20.845Z,59.90
2023-04-18T14:18:54.195Z,60.47
2023-04-18T14:21:27.388Z,60.56
2023-04-18T14:24:00.686Z,60.42
2023-04-18T14:26:33.926Z,60.71
2023-04-18T14:29:07.010Z,60.57
2023-04-18T14:31:40.109Z,60.15
2023-04-18T14:34:13.072Z,60.19
2023-04-18T14:36:46.307Z,60.38
2023-04-18T14:39:19.362Z,60.84
2023-04-18T14:41:54.386Z,60.98
2023-04-18T14:44:27.753Z,60.95
2023-04-18T14:47:00.830Z,60.79
2023-04-18T14:49:34.449Z,60.67
2023-04-18T14:52:07.444Z,60.69
2023-04-18T14:54:40.290Z,60.83
2023-04-18T14:57:13.192Z,61.58
2023-04-18T14:59:46.155Z,61.91
2023-04-18T15:02:19.112Z,62.38
2023-04-18T15:04:53.666Z,62.88
2023-04-18T15:07:27.052Z,63.34
2023-04-18T15:10:00.108Z,63.41
2023-04-18T15:12:34.075Z,63.92
2023-04-18T15:15:08.157Z,63.93
2023-04-18T15:17:42.733Z,64.20
2023-04-18T15:20:16.421Z,64.48
2023-04-18T15:22:49.193Z,64.78
2023-04-18T15:25:22.089Z,65.07
2023-04-18T15:27:55.262Z,65.39
2023-04-18T15:30:28.404Z,65.63
2023-04-18T15:33:02.742Z,65.95
2023-04-18T15:35:36.140Z,66.40
2023-04-18T15:38:08.968Z,66.80
2023-04-18T15:40:43.759Z,67.00
2023-04-18T15:43:17.551Z,67.29
2023-04-18T15:45:52.212Z,67.53
2023-04-18T15:48:25.665Z,67.66
2023-04-18T15:50:58.663Z,68.03
2023-04-18T15:53:31.984Z,68.00
2023-04-18T15:56:06.301Z,68.13
2023-04-18T15:58:39.129Z,68.14
2023-04-18T16:01:16.108Z,68.38
2023-04-18T16:03:49.307Z,68.79
2023-04-18T16:06:23.611Z,68.86
2023-04-18T16:08:55.722Z,69.17
2023-04-18T16:11:29.239Z,69.40
2023-04-18T16:14:02.132Z,69.58
2023-04-18T16:16:35.212Z,69.80
2023-04-18T16:19:07.999Z,69.88
2023-04-18T16:21:41.494Z,70.17
2023-04-18T16:24:16.871Z,70.45
2023-04-18T16:26:51.376Z,70.70
2023-04-18T16:29:24.566Z,70.90
2023-04-18T16:31:57.719Z,71.08
2023-04-18T16:34:30.775Z,71.35
2023-04-18T16:37:03.754Z,71.41
2023-04-18T16:39:36.850Z,71.61
2023-04-18T16:42:09.800Z,71.75
2023-04-18T16:44:45.055Z,71.92
2023-04-18T16:47:17.939Z,72.15
2023-04-18T16:49:51.751Z,72.38
2023-04-18T16:52:25.272Z,72.70
2023-04-18T16:54:58.414Z,73.62
2023-04-18T16:57:31.733Z,73.62
2023-04-18T17:00:05.464Z,73.29
2023-04-18T17:02:39.797Z,73.36
2023-04-18T17:05:13.180Z,73.68
2023-04-18T17:07:48.904Z,73.77
2023-04-18T17:10:21.911Z,73.79
2023-04-18T17:12:55.045Z,73.91
2023-04-18T17:15:28.960Z,74.02
2023-04-18T17:18:02.847Z,74.26
2023-04-18T17:20:36.513Z,74.36
2023-04-18T17:23:09.244Z,74.64
2023-04-18T17:25:42.034Z,74.95
2023-04-18T17:28:15.282Z,75.14
2023-04-18T17:30:49.829Z,75.37
2023-04-18T17:33:22.563Z,75.50
2023-04-18T17:35:55.624Z,75.61
2023-04-18T17:38:28.594Z,75.68
2023-04-18T17:41:03.177Z,75.79
2023-04-18T17:43:37.012Z,76.05
2023-04-18T17:46:10.195Z,76.12
2023-04-18T17:48:43.441Z,76.30
2023-04-18T17:51:17.097Z,76.67
2023-04-18T17:53:50.181Z,77.03
2023-04-18T17:56:23.068Z,77.31
2023-04-18T17:58:56.822Z,77.46
2023-04-18T18:01:30.738Z,77.54
2023-04-18T18:04:04.006Z,77.65
2023-04-18T18:06:37.589Z,77.79
2023-04-18T18:09:10.881Z,77.98
2023-04-18T18:11:43.826Z,78.16
2023-04-18T18:14:17.534Z,78.48
2023-04-18T18:16:50.746Z,78.83
2023-04-18T18:19:23.659Z,79.06
2023-04-18T18:21:56.825Z,79.28
2023-04-18T18:24:29.828Z,79.49
2023-04-18T18:27:02.744Z,79.51
2023-04-18T18:29:36.184Z,79.71
2023-04-18T18:32:09.381Z,79.79
2023-04-18T18:34:42.557Z,80.01
2023-04-18T18:37:15.974Z,80.08
2023-04-18T18:39:49.166Z,80.31
2023-04-18T18:42:22.102Z,80.40
2023-04-18T18:44:55.051Z,80.58
2023-04-18T18:47:28.208Z,81.02
2023-04-18T18:50:01.476Z,81.65
2023-04-18T18:52:34.828Z,82.68
2023-04-18T18:55:08.956Z,83.90
2023-04-18T18:57:41.017Z,84.92
2023-04-18T19:00:15.165Z,86.03
2023-04-18T19:02:48.636Z,87.03
2023-04-18T19:05:22.177Z,87.98
2023-04-18T19:07:55.979Z,88.38
2023-04-18T19:10:28.937Z,88.85
2023-04-18T19:13:02.189Z,89.41
2023-04-18T19:15:35.204Z,89.92
2023-04-18T19:18:08.806Z,90.24
2023-04-18T19:20:42.043Z,90.86
2023-04-18T19:23:15.164Z,91.51
2023-04-18T19:25:48.649Z,92.63
2023-04-18T19:28:22.841Z,93.94
2023-04-18T19:30:55.796Z,95.33
2023-04-18T19:33:29.593Z,96.56
2023-04-18T19:36:02.636Z,97.77
2023-04-18T19:38:35.993Z,98.76
2023-04-18T19:41:09.130Z,99.89
2023-04-18T19:43:42.864Z,100.00
2023-04-18T19:46:16.177Z,100.00
2023-04-18T19:48:49.168Z,100.00
2023-04-18T19:51:22.436Z,100.00
2023-04-18T19:53:55.986Z,100.00
2023-04-18T19:56:29.141Z,100.00
2023-04-18T19:59:02.704Z,100.00
2023-04-18T20:01:37.052Z,100.00
2023-04-18T20:04:10.368Z,100.00
2023-04-18T20:06:43.878Z,100.00
2023-04-18T20:09:17.767Z,100.00
2023-04-18T20:11:50.832Z,100.00
2023-04-18T20:14:24.121Z,100.00
2023-04-18T20:16:57.619Z,100.00
2023-04-18T20:19:30.661Z,100.00
2023-04-18T20:22:03.812Z,100.00
2023-04-18T20:24:38.830Z,100.00
2023-04-18T20:27:11.872Z,100.00
2023-04-18T20:29:45.571Z,100.00
2023-04-18T20:32:18.486Z,100.00
2023-04-18T20:34:51.760Z,100.00
2023-04-18T20:37:24.709Z,100.00
2023-04-18T20:39:59.084Z,100.00
2023-04-18T20:42:30.960Z,100.00
2023-04-18T20:45:08.807Z,100.00
2023-04-18T20:47:43.423Z,100.00
2023-04-18T20:50:18.411Z,100.00
2023-04-18T20:52:51.480Z,100.00
2023-04-18T20:55:24.603Z,100.00
2023-04-18T20:57:58.943Z,100.00
2023-04-18T21:00:30.923Z,100.00
2023-04-18T21:03:03.760Z,100.00
2023-04-18T21:05:37.214Z,100.00
2023-04-18T21:08:11.223Z,100.00
2023-04-18T21:10:43.428Z,100.00
2023-04-18T21:13:16.744Z,100.00
2023-04-18T21:15:51.253Z,100.00
2023-04-18T21:18:24.591Z,100.00
2023-04-18T21:20:57.635Z,100.00
2023-04-18T21:23:30.846Z,100.00
2023-04-18T21:26:03.875Z,100.00
2023-04-18T21:28:56.374Z,100.00
2023-04-18T21:31:33.081Z,100.00
2023-04-18T21:34:07.919Z,100.00
2023-04-18T21:36:42.004Z,100.00
2023-04-18T21:39:14.948Z,100.00
2023-04-18T21:41:48.145Z,100.00
2023-04-18T21:44:21.099Z,100.00
2023-04-18T21:46:54.173Z,100.00
2023-04-18T21:49:27.232Z,100.00
2023-04-18T21:52:00.680Z,100.00
2023-04-18T21:54:33.737Z,100.00
2023-04-18T21:57:06.984Z,100.00
2023-04-18T21:59:40.475Z,100.00
2023-04-18T22:02:13.652Z,99.36
2023-04-18T22:04:48.295Z,98.92
2023-04-18T22:07:21.838Z,98.60
2023-04-18T22:09:54.964Z,97.99
2023-04-18T22:12:28.040Z,97.68
2023-04-18T22:15:01.008Z,97.58
2023-04-18T22:17:35.485Z,97.51
2023-04-18T22:20:08.881Z,97.76
2023-04-18T22:22:42.151Z,97.76
2023-04-18T22:25:15.245Z,97.83
2023-04-18T22:27:48.261Z,97.86
2023-04-18T22:30:21.314Z,97.88
2023-04-18T22:32:54.531Z,97.69
2023-04-18T22:35:28.428Z,98.23
2023-04-18T22:38:01.683Z,98.57
2023-04-18T22:40:34.860Z,97.80
2023-04-18T22:43:08.019Z,97.37
2023-04-18T22:45:41.004Z,96.75
2023-04-18T22:48:13.814Z,96.18
2023-04-18T22:50:47.651Z,95.78
2023-04-18T22:53:20.720Z,95.15
2023-04-18T22:55:53.490Z,94.70
2023-04-18T22:58:26.711Z,94.32
2023-04-18T23:01:00.719Z,93.63
2023-04-18T23:03:34.868Z,93.38
2023-04-18T23:06:08.823Z,93.22
2023-04-18T23:08:41.628Z,92.60
2023-04-18T23:11:14.537Z,91.80
2023-04-18T23:13:48.560Z,91.57
2023-04-18T23:16:21.557Z,91.30
2023-04-18T23:18:54.794Z,91.54
2023-04-18T23:21:28.378Z,91.82
2023-04-18T23:24:02.224Z,91.61
2023-04-18T23:26:35.301Z,91.37
2023-04-18T23:29:08.380Z,90.79
2023-04-18T23:31:43.061Z,90.21
2023-04-18T23:34:16.459Z,89.86
2023-04-18T23:36:49.768Z,89.53
2023-04-18T23:39:23.093Z,89.16
2023-04-18T23:41:56.577Z,88.97
2023-04-18T23:44:29.622Z,88.82
2023-04-18T23:47:02.678Z,88.41
2023-04-18T23:49:36.023Z,88.23
2023-04-18T23:52:09.231Z,87.82
2023-04-18T23:54:42.104Z,87.98
2023-04-18T23:57:15.126Z,88.05
2023-04-18T23:59:48.288Z,88.02
